createdAt,value
2018-11-05T00:00:39.732Z,84.22
2018-11-05T00:03:08.748Z,84.19
2018-11-05T00:05:37.391Z,84.32
2018-11-05T00:08:06.449Z,84.15
2018-11-05T00:10:34.961Z,84.21
2018-11-05T00:13:03.429Z,84.25
2018-11-05T00:15:32.140Z,84.28
2018-11-05T00:18:01.180Z,84.18
2018-11-05T00:20:29.651Z,84.45
2018-11-05T00:22:58.304Z,84.21
2018-11-05T00:25:26.828Z,84.30
2018-11-05T00:27:55.857Z,84.32
2018-11-05T00:30:24.412Z,84.30
2018-11-05T00:32:52.946Z,84.56
2018-11-05T00:35:21.399Z,84.25
2018-11-05T00:37:50.393Z,84.21
2018-11-05T00:40:18.926Z,84.29
2018-11-05T00:42:47.414Z,84.30
2018-11-05T00:45:16.202Z,84.39
2018-11-05T00:47:45.093Z,84.25
2018-11-05T00:50:14.882Z,84.18
2018-11-05T00:52:43.469Z,84.42
2018-11-05T00:55:12.568Z,84.51
2018-11-05T00:57:41.037Z,84.04
2018-11-05T01:00:11.981Z,84.33
2018-11-05T01:02:41.170Z,83.92
2018-11-05T01:05:10.825Z,84.32
2018-11-05T01:07:40.734Z,84.11
2018-11-05T01:10:10.184Z,84.12
2018-11-05T01:12:38.688Z,84.17
2018-11-05T01:15:09.564Z,84.17
2018-11-05T01:17:38.239Z,84.09
2018-11-05T01:20:07.540Z,84.19
2018-11-05T01:22:36.170Z,84.17
2018-11-05T01:25:05.122Z,84.41
2018-11-05T01:27:33.595Z,84.26
2018-11-05T01:30:02.264Z,84.20
2018-11-05T01:32:30.982Z,84.33
2018-11-05T01:34:59.421Z,84.10
2018-11-05T01:37:28.279Z,84.13
2018-11-05T01:39:56.977Z,84.08
2018-11-05T01:42:25.445Z,84.06
2018-11-05T01:44:54.334Z,83.98
2018-11-05T01:47:22.859Z,84.18
2018-11-05T01:49:51.328Z,84.13
2018-11-05T01:52:19.899Z,83.82
2018-11-05T01:54:48.751Z,84.03
2018-11-05T01:57:17.213Z,84.05
2018-11-05T01:59:46.132Z,84.15
2018-11-05T02:02:14.885Z,83.92
2018-11-05T02:04:43.329Z,83.96
2018-11-05T02:07:12.189Z,84.10
2018-11-05T02:09:40.765Z,83.82
2018-11-05T02:12:09.219Z,83.97
2018-11-05T02:14:37.813Z,84.04
2018-11-05T02:17:06.370Z,83.77
2018-11-05T02:19:34.959Z,84.11
2018-11-05T02:22:03.565Z,83.83
2018-11-05T02:24:32.170Z,83.83
2018-11-05T02:27:00.695Z,83.91
2018-11-05T02:29:29.273Z,83.65
2018-11-05T02:32:04.702Z,83.58
2018-11-05T02:34:33.574Z,83.45
2018-11-05T02:37:02.051Z,83.61
2018-11-05T02:39:30.584Z,83.32
2018-11-05T02:41:59.687Z,83.49
2018-11-05T02:44:28.134Z,83.34
2018-11-05T02:46:57.143Z,83.56
2018-11-05T02:49:25.989Z,83.40
2018-11-05T02:51:54.492Z,83.54
2018-11-05T02:54:23.543Z,83.34
2018-11-05T02:56:52.662Z,83.21
2018-11-05T02:59:21.101Z,83.32
2018-11-05T03:01:49.672Z,83.11
2018-11-05T03:04:18.722Z,83.15
2018-11-05T03:06:47.217Z,83.10
2018-11-05T03:09:15.849Z,83.29
2018-11-05T03:11:44.818Z,83.12
2018-11-05T03:14:13.249Z,82.92
2018-11-05T03:16:41.900Z,83.11
2018-11-05T03:19:10.838Z,83.07
2018-11-05T03:21:39.346Z,83.13
2018-11-05T03:24:07.966Z,83.05
2018-11-05T03:26:36.950Z,83.28
2018-11-05T03:29:05.705Z,83.17
2018-11-05T03:31:34.634Z,82.93
2018-11-05T03:34:03.566Z,82.76
2018-11-05T03:36:32.019Z,83.02
2018-11-05T03:39:00.570Z,82.66
2018-11-05T03:41:29.930Z,82.67
2018-11-05T03:43:58.777Z,82.84
2018-11-05T03:46:27.741Z,82.79
2018-11-05T03:48:56.626Z,82.96
2018-11-05T03:51:25.085Z,82.58
2018-11-05T03:53:53.658Z,82.74
2018-11-05T03:56:22.323Z,82.62
2018-11-05T03:58:50.739Z,82.45
2018-11-05T04:01:19.446Z,82.58
2018-11-05T04:03:48.400Z,82.37
2018-11-05T04:06:16.858Z,82.09
2018-11-05T04:08:45.414Z,82.32
2018-11-05T04:11:14.449Z,82.40
2018-11-05T04:13:42.877Z,82.38
2018-11-05T04:16:11.643Z,82.24
2018-11-05T04:18:40.517Z,82.44
2018-11-05T04:21:08.966Z,82.49
2018-11-05T04:23:37.644Z,82.09
2018-11-05T04:26:06.309Z,82.18
2018-11-05T04:28:34.742Z,82.09
2018-11-05T04:31:03.693Z,82.08
2018-11-05T04:33:32.455Z,82.03
2018-11-05T04:36:00.931Z,82.03
2018-11-05T04:38:29.523Z,82.07
2018-11-05T04:40:58.369Z,82.14
2018-11-05T04:43:26.820Z,81.91
2018-11-05T04:45:55.545Z,82.00
2018-11-05T04:48:24.433Z,81.93
2018-11-05T04:50:52.893Z,82.03
2018-11-05T04:53:21.437Z,81.66
2018-11-05T04:55:50.183Z,81.86
2018-11-05T04:58:18.624Z,81.78
2018-11-05T05:00:47.325Z,82.04
2018-11-05T05:03:16.586Z,82.02
2018-11-05T05:05:45.058Z,81.79
2018-11-05T05:08:13.966Z,81.77
2018-11-05T05:10:42.593Z,81.71
2018-11-05T05:13:11.045Z,81.70
2018-11-05T05:15:39.569Z,81.58
2018-11-05T05:18:08.354Z,81.59
2018-11-05T05:20:36.828Z,81.48
2018-11-05T05:23:06.017Z,81.54
2018-11-05T05:25:34.409Z,81.54
2018-11-05T05:28:02.899Z,81.55
2018-11-05T05:30:31.444Z,81.69
2018-11-05T05:33:00.098Z,81.67
2018-11-05T05:35:28.502Z,81.54
2018-11-05T05:37:57.262Z,81.62
2018-11-05T05:40:25.860Z,81.56
2018-11-05T05:42:54.317Z,81.30
2018-11-05T05:45:23.430Z,81.48
2018-11-05T05:47:52.258Z,81.49
2018-11-05T05:50:20.900Z,81.53
2018-11-05T05:52:49.964Z,81.55
2018-11-05T05:55:19.627Z,81.70
2018-11-05T05:57:48.254Z,81.71
2018-11-05T06:00:17.969Z,81.66
2018-11-05T06:02:46.845Z,81.60
2018-11-05T06:05:15.891Z,81.49
2018-11-05T06:07:44.558Z,81.36
2018-11-05T06:10:14.488Z,81.81
2018-11-05T06:12:42.966Z,81.66
2018-11-05T06:15:13.277Z,81.73
2018-11-05T06:17:41.902Z,81.78
2018-11-05T06:20:13.046Z,81.92
2018-11-05T06:22:41.968Z,81.72
2018-11-05T06:25:10.598Z,81.79
2018-11-05T06:27:39.245Z,81.94
2018-11-05T06:30:14.050Z,82.12
2018-11-05T06:32:43.073Z,82.16
2018-11-05T06:35:12.422Z,82.23
2018-11-05T06:37:41.647Z,82.41
2018-11-05T06:40:12.525Z,82.57
2018-11-05T06:42:41.332Z,82.78
2018-11-05T06:45:12.664Z,82.57
2018-11-05T06:47:42.265Z,82.74
2018-11-05T06:50:13.385Z,82.82
2018-11-05T06:52:42.630Z,82.95
2018-11-05T06:55:12.036Z,83.14
2018-11-05T06:57:41.155Z,83.44
2018-11-05T07:00:12.690Z,83.55
2018-11-05T07:02:41.451Z,83.81
2018-11-05T07:05:10.009Z,83.71
2018-11-05T07:07:38.952Z,84.12
2018-11-05T07:10:09.037Z,84.12
2018-11-05T07:12:38.289Z,84.26
2018-11-05T07:15:08.435Z,84.21
2018-11-05T07:17:37.021Z,84.39
2018-11-05T07:20:08.040Z,84.39
2018-11-05T07:22:36.528Z,84.83
2018-11-05T07:25:06.386Z,84.59
2018-11-05T07:27:35.112Z,84.88
2018-11-05T07:30:04.033Z,85.04
2018-11-05T07:32:32.609Z,85.30
2018-11-05T07:35:01.241Z,85.04
2018-11-05T07:37:29.810Z,85.22
2018-11-05T07:39:58.491Z,85.19
2018-11-05T07:42:27.445Z,85.35
2018-11-05T07:44:55.948Z,85.44
2018-11-05T07:47:24.876Z,85.50
2018-11-05T07:49:53.854Z,85.59
2018-11-05T07:52:22.763Z,85.72
2018-11-05T07:54:51.313Z,85.68
2018-11-05T07:57:20.160Z,85.82
2018-11-05T07:59:48.686Z,86.07
2018-11-05T08:02:17.245Z,86.16
2018-11-05T08:04:45.981Z,86.16
2018-11-05T08:07:14.805Z,86.17
2018-11-05T08:09:43.663Z,86.28
2018-11-05T08:12:12.573Z,86.18
2018-11-05T08:14:41.181Z,86.26
2018-11-05T08:17:10.000Z,86.29
2018-11-05T08:19:38.530Z,86.53
2018-11-05T08:22:07.025Z,86.32
2018-11-05T08:24:42.075Z,86.41
2018-11-05T08:27:10.597Z,86.25
2018-11-05T08:29:39.030Z,86.24
2018-11-05T08:32:08.307Z,86.57
2018-11-05T08:34:37.050Z,86.61
2018-11-05T08:37:05.627Z,86.46
2018-11-05T08:39:34.935Z,86.41
2018-11-05T08:42:03.458Z,86.43
2018-11-05T08:44:32.074Z,86.69
2018-11-05T08:47:01.401Z,86.55
2018-11-05T08:49:29.781Z,86.86
2018-11-05T08:51:58.233Z,86.75
2018-11-05T08:54:27.374Z,86.92
2018-11-05T08:56:56.037Z,86.83
2018-11-05T08:59:24.481Z,86.79
2018-11-05T09:01:53.590Z,86.58
2018-11-05T09:04:22.101Z,86.53
2018-11-05T09:06:50.555Z,86.75
2018-11-05T09:09:19.465Z,86.75
2018-11-05T09:11:48.059Z,86.64
2018-11-05T09:14:16.524Z,86.61
2018-11-05T09:16:46.056Z,86.86
2018-11-05T09:19:14.566Z,86.87
2018-11-05T09:21:43.026Z,86.95
2018-11-05T09:24:12.166Z,87.11
2018-11-05T09:26:40.742Z,86.87
2018-11-05T09:29:09.218Z,87.02
2018-11-05T09:31:38.499Z,86.81
2018-11-05T09:34:07.037Z,86.97
2018-11-05T09:36:35.551Z,86.68
2018-11-05T09:39:05.471Z,86.81
2018-11-05T09:41:33.964Z,86.73
2018-11-05T09:44:02.438Z,86.52
2018-11-05T09:46:31.748Z,86.59
2018-11-05T09:49:00.259Z,86.63
2018-11-05T09:51:28.763Z,86.72
2018-11-05T09:53:57.911Z,86.25
2018-11-05T09:56:26.618Z,86.33
2018-11-05T09:58:55.098Z,86.26
2018-11-05T10:01:24.177Z,86.31
2018-11-05T10:03:55.312Z,86.07
2018-11-05T10:06:24.538Z,85.98
2018-11-05T10:08:53.137Z,85.85
2018-11-05T10:11:21.665Z,85.76
2018-11-05T10:13:50.590Z,85.82
2018-11-05T10:16:19.279Z,85.94
2018-11-05T10:18:47.761Z,85.81
2018-11-05T10:21:16.641Z,85.93
2018-11-05T10:23:45.511Z,85.91
2018-11-05T10:26:14.086Z,85.65
2018-11-05T10:28:42.708Z,85.76
2018-11-05T10:31:15.405Z,85.82
2018-11-05T10:33:48.285Z,85.82
2018-11-05T10:36:16.754Z,86.12
2018-11-05T10:38:46.065Z,86.09
2018-11-05T10:41:14.816Z,85.92
2018-11-05T10:43:43.585Z,85.56
2018-11-05T10:46:12.321Z,85.80
2018-11-05T10:48:40.854Z,85.65
2018-11-05T10:51:09.665Z,85.81
2018-11-05T10:53:38.369Z,85.91
2018-11-05T10:56:07.058Z,86.06
2018-11-05T10:58:35.762Z,85.95
2018-11-05T11:01:09.579Z,85.85
2018-11-05T11:03:39.278Z,86.06
2018-11-05T11:06:09.257Z,85.96
2018-11-05T11:08:37.728Z,86.17
2018-11-05T11:11:06.675Z,86.20
2018-11-05T11:13:41.852Z,85.96
2018-11-05T11:16:10.517Z,85.94
2018-11-05T11:18:38.994Z,86.14
2018-11-05T11:21:07.472Z,86.20
2018-11-05T11:23:36.410Z,85.94
2018-11-05T11:26:05.095Z,85.87
2018-11-05T11:28:33.650Z,85.70
2018-11-05T11:31:03.104Z,85.94
2018-11-05T11:33:31.714Z,85.92
2018-11-05T11:36:00.192Z,86.00
2018-11-05T11:38:29.816Z,86.07
2018-11-05T11:40:58.271Z,85.82
2018-11-05T11:43:26.786Z,86.40
2018-11-05T11:45:55.534Z,85.95
2018-11-05T11:48:23.958Z,86.17
2018-11-05T11:50:52.429Z,86.25
2018-11-05T11:53:21.860Z,86.01
2018-11-05T11:55:50.541Z,85.94
2018-11-05T11:58:19.010Z,85.96
2018-11-05T12:00:47.793Z,85.80
2018-11-05T12:03:16.245Z,85.66
2018-11-05T12:05:44.806Z,85.86
2018-11-05T12:08:13.511Z,85.77
2018-11-05T12:10:42.000Z,85.66
2018-11-05T12:13:10.453Z,85.87
2018-11-05T12:15:39.400Z,85.82
2018-11-05T12:18:07.881Z,86.03
2018-11-05T12:20:36.364Z,85.80
2018-11-05T12:23:05.469Z,85.86
2018-11-05T12:25:33.919Z,85.85
2018-11-05T12:28:02.387Z,86.10
2018-11-05T12:30:31.444Z,85.87
2018-11-05T12:32:59.905Z,86.22
2018-11-05T12:35:28.398Z,85.84
2018-11-05T12:37:57.549Z,86.30
2018-11-05T12:40:26.006Z,86.04
2018-11-05T12:42:54.453Z,85.84
2018-11-05T12:45:23.669Z,86.11
2018-11-05T12:47:52.145Z,86.32
2018-11-05T12:50:22.659Z,86.04
2018-11-05T12:52:52.325Z,86.28
2018-11-05T12:55:20.814Z,86.46
2018-11-05T12:57:49.744Z,86.42
2018-11-05T13:00:20.452Z,86.67
2018-11-05T13:02:53.731Z,86.60
2018-11-05T13:05:23.287Z,86.56
2018-11-05T13:07:51.760Z,86.37
2018-11-05T13:10:20.263Z,86.49
2018-11-05T13:12:49.150Z,86.73
2018-11-05T13:15:17.691Z,86.70
2018-11-05T13:17:46.135Z,86.69
2018-11-05T13:20:16.122Z,86.85
2018-11-05T13:22:44.753Z,86.77
2018-11-05T13:25:13.314Z,86.81
2018-11-05T13:27:43.499Z,87.03
2018-11-05T13:30:13.165Z,86.95
2018-11-05T13:32:42.066Z,86.91
2018-11-05T13:35:12.321Z,86.85
2018-11-05T13:37:41.521Z,86.86
2018-11-05T13:40:12.102Z,86.72
2018-11-05T13:42:40.953Z,86.91
2018-11-05T13:45:11.066Z,87.09
2018-11-05T13:47:40.394Z,86.99
2018-11-05T13:50:09.337Z,87.20
2018-11-05T13:52:38.221Z,86.93
2018-11-05T13:55:07.714Z,87.04
2018-11-05T13:57:36.169Z,87.14
2018-11-05T14:00:06.092Z,86.99
2018-11-05T14:02:35.165Z,86.87
2018-11-05T14:05:03.823Z,86.86
2018-11-05T14:07:32.799Z,87.22
2018-11-05T14:10:01.741Z,86.95
2018-11-05T14:12:30.213Z,86.73
2018-11-05T14:14:58.933Z,87.01
2018-11-05T14:17:28.193Z,87.22
2018-11-05T14:19:56.656Z,86.94
2018-11-05T14:22:25.687Z,86.97
2018-11-05T14:24:54.253Z,87.07
2018-11-05T14:27:22.752Z,87.22
2018-11-05T14:29:51.595Z,86.99
2018-11-05T14:32:20.291Z,87.01
2018-11-05T14:34:48.811Z,87.00
2018-11-05T14:37:17.550Z,86.95
2018-11-05T14:39:46.196Z,86.87
2018-11-05T14:42:14.669Z,87.10
2018-11-05T14:44:43.547Z,87.15
2018-11-05T14:47:12.403Z,87.03
2018-11-05T14:49:40.861Z,87.04
2018-11-05T14:52:09.806Z,87.19
2018-11-05T14:54:38.786Z,87.09
2018-11-05T14:57:07.788Z,87.12
2018-11-05T14:59:36.886Z,86.98
2018-11-05T15:02:10.548Z,87.20
2018-11-05T15:04:39.355Z,86.99
2018-11-05T15:07:07.971Z,86.86
2018-11-05T15:09:36.723Z,87.16
2018-11-05T15:12:05.846Z,87.18
2018-11-05T15:14:34.369Z,87.22
2018-11-05T15:17:02.893Z,86.87
2018-11-05T15:19:32.955Z,87.29
2018-11-05T15:22:01.033Z,87.17
2018-11-05T15:24:29.545Z,87.43
2018-11-05T15:26:58.845Z,87.20
2018-11-05T15:29:27.108Z,87.03
2018-11-05T15:31:55.622Z,87.20
2018-11-05T15:34:24.399Z,87.35
2018-11-05T15:36:53.191Z,87.54
2018-11-05T15:39:22.505Z,87.18
2018-11-05T15:41:51.664Z,87.01
2018-11-05T15:44:20.135Z,87.22
2018-11-05T15:46:48.696Z,87.15
2018-11-05T15:49:17.419Z,86.89
2018-11-05T15:51:46.152Z,86.99
2018-11-05T15:54:14.621Z,86.78
2018-11-05T15:56:43.412Z,86.89
2018-11-05T15:59:11.894Z,86.87
2018-11-05T16:01:40.409Z,86.87
2018-11-05T16:04:09.291Z,86.87
2018-11-05T16:06:37.737Z,86.78
2018-11-05T16:09:08.255Z,86.75
2018-11-05T16:11:37.361Z,86.83
2018-11-05T16:14:06.212Z,86.66
2018-11-05T16:16:34.822Z,86.61
2018-11-05T16:19:03.525Z,86.70
2018-11-05T16:21:32.045Z,86.68
2018-11-05T16:24:00.529Z,86.78
2018-11-05T16:26:29.218Z,86.73
2018-11-05T16:28:57.697Z,86.63
2018-11-05T16:31:26.375Z,86.79
2018-11-05T16:33:55.291Z,86.68
2018-11-05T16:36:23.767Z,86.81
2018-11-05T16:38:52.265Z,86.52
2018-11-05T16:41:21.281Z,86.70
2018-11-05T16:43:49.730Z,86.67
2018-11-05T16:46:18.409Z,86.61
2018-11-05T16:48:47.345Z,86.83
2018-11-05T16:51:15.883Z,86.61
2018-11-05T16:53:44.418Z,86.73
2018-11-05T16:56:13.662Z,86.98
2018-11-05T16:58:42.140Z,86.84
2018-11-05T17:01:10.822Z,86.99
2018-11-05T17:03:39.273Z,87.02
2018-11-05T17:06:08.717Z,86.73
2018-11-05T17:08:37.310Z,86.64
2018-11-05T17:11:07.064Z,86.68
2018-11-05T17:13:35.666Z,86.61
2018-11-05T17:16:04.006Z,86.69
2018-11-05T17:18:32.643Z,86.74
2018-11-05T17:21:01.090Z,86.71
2018-11-05T17:23:29.620Z,86.58
2018-11-05T17:25:58.592Z,86.54
2018-11-05T17:28:26.998Z,86.66
2018-11-05T17:30:55.498Z,86.93
2018-11-05T17:33:24.658Z,86.70
2018-11-05T17:35:53.081Z,86.88
2018-11-05T17:38:21.606Z,86.81
2018-11-05T17:40:50.698Z,86.66
2018-11-05T17:43:19.153Z,86.50
2018-11-05T17:45:47.625Z,86.59
2018-11-05T17:48:16.717Z,86.65
2018-11-05T17:50:45.268Z,86.82
2018-11-05T17:53:13.816Z,86.76
2018-11-05T17:55:42.832Z,86.83
2018-11-05T17:58:11.426Z,86.58
2018-11-05T18:00:39.941Z,86.70
2018-11-05T18:03:08.745Z,86.66
2018-11-05T18:05:37.189Z,86.90
2018-11-05T18:08:05.706Z,86.79
2018-11-05T18:10:34.882Z,86.82
2018-11-05T18:13:03.558Z,86.65
2018-11-05T18:15:32.211Z,86.90
2018-11-05T18:18:01.166Z,86.76
2018-11-05T18:20:29.652Z,86.78
2018-11-05T18:22:58.162Z,86.61
2018-11-05T18:25:27.608Z,86.61
2018-11-05T18:27:56.066Z,86.75
2018-11-05T18:30:25.046Z,86.92
2018-11-05T18:32:53.796Z,86.57
2018-11-05T18:35:22.233Z,86.59
2018-11-05T18:37:52.010Z,86.33
2018-11-05T18:40:21.697Z,86.27
2018-11-05T18:42:50.213Z,86.24
2018-11-05T18:45:18.767Z,86.13
2018-11-05T18:47:47.987Z,86.06
2018-11-05T18:50:16.931Z,86.39
2018-11-05T18:52:45.749Z,86.19
2018-11-05T18:55:16.141Z,86.26
2018-11-05T18:57:44.617Z,86.48
2018-11-05T19:00:19.948Z,86.15
2018-11-05T19:02:50.164Z,86.38
2018-11-05T19:05:19.168Z,86.39
2018-11-05T19:07:48.061Z,86.44
2018-11-05T19:10:16.508Z,86.31
2018-11-05T19:12:45.005Z,86.33
2018-11-05T19:15:14.773Z,86.37
2018-11-05T19:17:44.065Z,86.46
2018-11-05T19:20:12.613Z,85.94
2018-11-05T19:22:42.167Z,86.08
2018-11-05T19:25:12.073Z,86.07
2018-11-05T19:27:41.106Z,86.42
2018-11-05T19:30:13.160Z,86.28
2018-11-05T19:32:41.599Z,86.51
2018-11-05T19:35:10.906Z,86.35
2018-11-05T19:37:39.873Z,86.40
2018-11-05T19:40:09.825Z,86.30
2018-11-05T19:42:38.628Z,86.16
2018-11-05T19:45:09.457Z,86.36
2018-11-05T19:47:38.221Z,86.19
2018-11-05T19:50:08.652Z,86.39
2018-11-05T19:52:37.652Z,86.34
2018-11-05T19:55:07.505Z,86.05
2018-11-05T19:57:36.300Z,86.30
2018-11-05T20:00:07.228Z,86.28
2018-11-05T20:02:35.792Z,86.44
2018-11-05T20:05:04.339Z,86.35
2018-11-05T20:07:33.128Z,86.33
2018-11-05T20:10:01.670Z,86.57
2018-11-05T20:12:30.151Z,86.56
2018-11-05T20:14:59.130Z,86.57
2018-11-05T20:17:27.709Z,86.72
2018-11-05T20:19:56.210Z,86.93
2018-11-05T20:22:25.392Z,87.00
2018-11-05T20:24:53.899Z,86.98
2018-11-05T20:27:22.377Z,86.91
2018-11-05T20:29:51.241Z,86.96
2018-11-05T20:32:20.257Z,86.88
2018-11-05T20:34:48.626Z,86.77
2018-11-05T20:37:17.914Z,87.15
2018-11-05T20:39:46.381Z,87.08
2018-11-05T20:42:14.841Z,86.96
2018-11-05T20:44:43.869Z,86.79
2018-11-05T20:47:12.402Z,86.79
2018-11-05T20:49:40.983Z,86.84
2018-11-05T20:52:10.158Z,86.99
2018-11-05T20:54:38.995Z,87.01
2018-11-05T20:57:07.569Z,86.96
2018-11-05T20:59:36.657Z,86.99
2018-11-05T21:02:06.674Z,87.00
2018-11-05T21:04:35.141Z,86.96
2018-11-05T21:07:03.952Z,87.06
2018-11-05T21:09:32.663Z,86.96
2018-11-05T21:12:01.175Z,87.20
2018-11-05T21:14:29.904Z,87.09
2018-11-05T21:16:58.376Z,87.11
2018-11-05T21:19:27.041Z,87.07
2018-11-05T21:21:56.291Z,87.09
2018-11-05T21:24:25.477Z,87.09
2018-11-05T21:26:53.929Z,86.98
2018-11-05T21:29:23.195Z,86.81
2018-11-05T21:31:51.631Z,87.01
2018-11-05T21:34:20.099Z,87.07
2018-11-05T21:36:49.007Z,87.35
2018-11-05T21:39:17.444Z,87.19
2018-11-05T21:41:45.934Z,87.19
2018-11-05T21:44:15.067Z,87.41
2018-11-05T21:46:43.526Z,87.13
2018-11-05T21:49:12.007Z,87.13
2018-11-05T21:51:41.086Z,87.12
2018-11-05T21:54:09.573Z,87.11
2018-11-05T21:56:38.035Z,87.10
2018-11-05T21:59:07.146Z,87.23
2018-11-05T22:01:35.572Z,87.19
2018-11-05T22:04:04.034Z,87.38
2018-11-05T22:06:32.831Z,87.35
2018-11-05T22:09:01.282Z,87.19
2018-11-05T22:11:29.775Z,87.43
2018-11-05T22:13:58.488Z,87.06
2018-11-05T22:16:26.925Z,87.21
2018-11-05T22:18:55.419Z,87.34
2018-11-05T22:21:24.528Z,87.35
2018-11-05T22:23:53.014Z,87.46
2018-11-05T22:26:21.477Z,87.47
2018-11-05T22:28:50.237Z,87.20
2018-11-05T22:31:18.723Z,87.33
2018-11-05T22:33:47.161Z,87.12
2018-11-05T22:36:15.864Z,87.33
2018-11-05T22:38:44.309Z,87.52
2018-11-05T22:41:12.802Z,87.41
2018-11-05T22:43:41.775Z,87.29
2018-11-05T22:46:10.225Z,87.33
2018-11-05T22:48:38.704Z,87.29
2018-11-05T22:51:07.978Z,87.15
2018-11-05T22:53:36.472Z,87.47
2018-11-05T22:56:05.256Z,87.32
2018-11-05T22:58:34.405Z,87.12
2018-11-05T23:01:05.953Z,87.43
2018-11-05T23:03:34.554Z,87.31
2018-11-05T23:06:03.473Z,87.13
2018-11-05T23:08:31.935Z,87.27
2018-11-05T23:11:00.683Z,87.20
2018-11-05T23:13:29.293Z,87.32
2018-11-05T23:15:57.733Z,87.20
2018-11-05T23:18:26.332Z,87.47
2018-11-05T23:20:54.889Z,87.24
2018-11-05T23:23:23.472Z,87.28
2018-11-05T23:25:52.361Z,87.39
2018-11-05T23:28:20.914Z,87.58
2018-11-05T23:30:49.349Z,87.53
2018-11-05T23:33:18.265Z,87.28
2018-11-05T23:35:47.076Z,87.29
2018-11-05T23:38:15.520Z,87.35
2018-11-05T23:40:44.289Z,87.29
2018-11-05T23:43:12.857Z,87.44
2018-11-05T23:45:41.335Z,87.30
2018-11-05T23:48:10.264Z,87.21
2018-11-05T23:50:39.253Z,87.47
2018-11-05T23:53:07.685Z,87.42
2018-11-05T23:55:36.262Z,87.35
2018-11-05T23:58:04.946Z,87.36
